Time;durP1;ratioP1;P1;durP2;ratioP2;P2;SDS_P1;SDS_P2;PMS_P1;PMS_P2;Temp;Humidity;BMP_temperature;BMP_pressure;BME280_temperature;BME280_humidity;BME280_pressure;Samples;Min_cycle;Max_cycle;Signal;HPM_P1;HPM_P2
2024/01/10 00:01:08;;;;;;;7.65;2.30;;;26.20;71.80;;;;;;5076311;28;20436;-78
2024/01/10 00:03:35;;;;;;;10.32;2.13;;;26.30;71.20;;;;;;5080207;28;20026;-76
2024/01/10 00:06:02;;;;;;;7.07;2.13;;;26.30;70.30;;;;;;5074302;28;20598;-76
2024/01/10 00:08:30;;;;;;;8.23;2.30;;;26.30;70.70;;;;;;5074241;28;20056;-79
2024/01/10 00:10:58;;;;;;;10.15;2.20;;;26.40;71.00;;;;;;5074426;28;20032;-83
2024/01/10 00:13:26;;;;;;;6.47;2.00;;;26.50;70.60;;;;;;5066760;28;20436;-77
2024/01/10 00:15:55;;;;;;;6.72;2.05;;;26.60;70.40;;;;;;5073088;28;20220;-77
2024/01/10 00:18:23;;;;;;;8.32;2.08;;;26.60;70.20;;;;;;5077028;28;20020;-77
2024/01/10 00:20:53;;;;;;;8.43;2.60;;;26.70;69.60;;;;;;5064581;28;20032;-78
2024/01/10 00:23:21;;;;;;;7.43;1.90;;;26.70;69.30;;;;;;5073940;28;20480;-77
2024/01/10 00:25:52;;;;;;;7.50;1.92;;;26.70;69.50;;;;;;5071218;28;20028;-80
2024/01/10 00:28:20;;;;;;;8.77;2.20;;;26.80;69.60;;;;;;5074562;28;20070;-78
2024/01/10 00:30:50;;;;;;;9.80;2.22;;;26.80;69.40;;;;;;5058896;28;20110;-85
2024/01/10 00:33:17;;;;;;;7.10;1.85;;;26.90;69.10;;;;;;5060019;28;20016;-79
2024/01/10 00:35:45;;;;;;;6.43;2.15;;;26.90;69.00;;;;;;5073573;28;20426;-80
2024/01/10 00:38:13;;;;;;;7.53;2.20;;;26.90;69.20;;;;;;5074027;28;20028;-81
2024/01/10 00:40:41;;;;;;;8.68;2.40;;;27.00;69.30;;;;;;5064352;28;20040;-83
2024/01/10 00:43:08;;;;;;;6.85;1.85;;;27.00;69.20;;;;;;5058899;28;20070;-82
2024/01/10 00:45:36;;;;;;;7.78;1.90;;;27.00;69.10;;;;;;5055164;28;20028;-77
2024/01/10 00:48:07;;;;;;;7.00;2.25;;;27.20;69.30;;;;;;5064223;28;20025;-84
2024/01/10 00:50:35;;;;;;;22.05;3.65;;;27.20;68.40;;;;;;5070670;28;20043;-78
2024/01/10 00:53:02;;;;;;;13.25;2.85;;;27.30;68.40;;;;;;5074228;28;20031;-78
2024/01/10 00:55:30;;;;;;;10.52;2.63;;;27.30;67.50;;;;;;5067618;28;20115;-77
2024/01/10 00:58:03;;;;;;;18.98;2.83;;;27.30;67.80;;;;;;5056327;28;20021;-79
2024/01/10 01:00:32;;;;;;;10.50;2.80;;;27.30;67.90;;;;;;5070574;28;20095;-79
2024/01/10 01:03:00;;;;;;;15.57;2.58;;;27.30;67.70;;;;;;5076658;28;20079;-76
2024/01/10 01:05:33;;;;;;;6.22;1.80;;;27.30;67.70;;;;;;5063666;28;20043;-83
2024/01/10 01:08:01;;;;;;;7.25;2.30;;;27.40;67.80;;;;;;5058188;28;20532;-86
2024/01/10 01:10:29;;;;;;;5.00;1.65;;;27.40;67.70;;;;;;5068003;28;20046;-85
2024/01/10 01:12:57;;;;;;;6.90;2.20;;;27.50;67.80;;;;;;5079106;28;20024;-76
2024/01/10 01:15:26;;;;;;;5.78;2.17;;;27.60;67.70;;;;;;5067909;28;20452;-77
2024/01/10 01:17:56;;;;;;;5.75;1.88;;;27.60;67.50;;;;;;5064948;28;20680;-77
2024/01/10 01:20:24;;;;;;;5.38;1.80;;;27.70;67.40;;;;;;5063232;28;20037;-77
2024/01/10 01:23:00;;;;;;;4.53;2.05;;;27.70;67.50;;;;;;5068806;28;20036;-87
2024/01/10 01:25:31;;;;;;;5.05;1.90;;;27.80;67.00;;;;;;5076642;28;20024;-78
2024/01/10 01:28:00;;;;;;;7.63;1.98;;;27.80;66.70;;;;;;5073577;28;20544;-76
2024/01/10 01:30:28;;;;;;;5.10;2.72;;;27.70;66.60;;;;;;5091486;28;20528;-77
2024/01/10 01:32:57;;;;;;;8.40;3.45;;;27.70;66.90;;;;;;5077172;28;20380;-81
2024/01/10 01:35:30;;;;;;;5.28;2.15;;;27.70;67.10;;;;;;5074308;28;20040;-77
2024/01/10 01:38:01;;;;;;;5.57;2.10;;;27.70;67.00;;;;;;5081373;28;20392;-78
2024/01/10 01:40:32;;;;;;;5.80;1.98;;;27.80;67.20;;;;;;5078657;28;20375;-78
2024/01/10 01:43:01;;;;;;;5.43;2.25;;;28.00;66.20;;;;;;5064229;28;20527;-77
2024/01/10 01:45:29;;;;;;;7.78;2.03;;;28.00;65.90;;;;;;5055091;28;20040;-82
2024/01/10 01:47:57;;;;;;;7.15;1.90;;;28.00;66.00;;;;;;5070756;28;20085;-80
2024/01/10 01:50:28;;;;;;;8.00;2.20;;;28.00;65.70;;;;;;5070211;28;20025;-82
2024/01/10 01:52:57;;;;;;;6.03;2.13;;;28.10;65.90;;;;;;5067765;28;20103;-84
2024/01/10 01:55:25;;;;;;;10.32;2.33;;;28.00;66.00;;;;;;5072428;28;20379;-85
2024/01/10 01:57:56;;;;;;;6.57;2.17;;;28.00;66.10;;;;;;5072313;28;20020;-86
2024/01/10 02:00:27;;;;;;;5.82;2.40;;;28.00;66.20;;;;;;5072435;28;20043;-80
2024/01/10 02:02:57;;;;;;;7.53;2.75;;;28.00;66.20;;;;;;5073746;28;20046;-81
2024/01/10 02:05:28;;;;;;;8.70;2.30;;;28.00;66.30;;;;;;5075576;28;20020;-76
2024/01/10 02:07:56;;;;;;;6.63;2.25;;;28.00;66.40;;;;;;5076549;28;20463;-79
2024/01/10 02:10:24;;;;;;;10.77;2.42;;;28.10;66.30;;;;;;5071090;28;20020;-81
2024/01/10 02:12:54;;;;;;;6.43;2.17;;;28.10;65.70;;;;;;5070121;28;20033;-78
2024/01/10 02:15:30;;;;;;;5.38;2.25;;;28.10;65.90;;;;;;5069612;28;20058;-81
2024/01/10 02:17:59;;;;;;;5.57;2.03;;;28.10;65.80;;;;;;5060996;28;20025;-83
2024/01/10 02:20:27;;;;;;;7.65;2.50;;;28.10;66.00;;;;;;5074108;28;20068;-84
2024/01/10 02:22:57;;;;;;;5.90;2.20;;;28.20;66.00;;;;;;5090456;28;20108;-83
2024/01/10 02:25:32;;;;;;;6.97;2.35;;;28.30;65.70;;;;;;5073669;28;20107;-78
2024/01/10 02:28:03;;;;;;;8.35;2.45;;;28.30;65.80;;;;;;5070058;28;20031;-83
2024/01/10 02:30:35;;;;;;;6.05;2.42;;;28.30;65.50;;;;;;5071775;28;20064;-88
2024/01/10 02:33:03;;;;;;;4.85;2.47;;;28.30;65.70;;;;;;5079704;28;20086;-78
2024/01/10 02:35:35;;;;;;;6.30;2.55;;;28.40;65.60;;;;;;5083609;28;20047;-81
2024/01/10 02:38:06;;;;;;;10.85;3.20;;;28.40;65.50;;;;;;5049556;28;20104;-85
2024/01/10 02:40:34;;;;;;;7.05;2.92;;;28.50;65.90;;;;;;5073657;28;20082;-81
2024/01/10 02:43:04;;;;;;;4.80;3.10;;;28.50;65.70;;;;;;5070484;28;20036;-82
2024/01/10 02:45:32;;;;;;;4.57;2.40;;;28.50;65.50;;;;;;5071359;28;20581;-85
2024/01/10 02:48:00;;;;;;;7.28;3.30;;;28.50;65.80;;;;;;5070046;28;20096;-78
2024/01/10 02:50:28;;;;;;;10.15;2.97;;;28.50;65.70;;;;;;5070220;28;20440;-78
2024/01/10 02:53:01;;;;;;;5.93;2.55;;;28.50;65.80;;;;;;5071596;28;20078;-85
2024/01/10 02:55:29;;;;;;;6.68;3.30;;;28.40;65.70;;;;;;5060533;28;20032;-80
2024/01/10 02:57:57;;;;;;;8.73;3.70;;;28.40;65.90;;;;;;5067287;28;20055;-84
2024/01/10 03:00:26;;;;;;;6.72;3.95;;;28.50;65.80;;;;;;5061362;28;20133;-79
2024/01/10 03:03:03;;;;;;;7.38;4.03;;;28.50;66.00;;;;;;5050776;28;20041;-83
2024/01/10 03:05:31;;;;;;;8.30;4.20;;;28.50;66.10;;;;;;5052478;28;20088;-90
2024/01/10 03:08:06;;;;;;;11.10;4.43;;;28.60;66.10;;;;;;5052048;28;20549;-90
2024/01/10 03:10:37;;;;;;;7.32;3.95;;;28.70;66.30;;;;;;5051871;28;20107;-87
2024/01/10 03:13:05;;;;;;;8.13;3.95;;;28.70;66.10;;;;;;5051942;28;20127;-79
2024/01/10 03:15:33;;;;;;;6.50;3.90;;;28.60;65.90;;;;;;5050200;28;20076;-86
2024/01/10 03:18:02;;;;;;;6.68;3.97;;;28.60;66.40;;;;;;5051716;28;20448;-86
2024/01/10 03:20:30;;;;;;;8.02;4.53;;;28.60;66.10;;;;;;5051885;28;20039;-86
2024/01/10 03:22:58;;;;;;;5.57;3.95;;;28.60;66.30;;;;;;5057262;28;20024;-77
2024/01/10 03:25:26;;;;;;;7.70;4.82;;;28.60;66.00;;;;;;5077026;28;20521;-87
2024/01/10 03:27:56;;;;;;;6.78;4.45;;;28.70;66.20;;;;;;5095042;28;20524;-86
2024/01/10 03:30:30;;;;;;;9.45;5.78;;;28.70;65.90;;;;;;5081782;28;20035;-84
2024/01/10 03:32:59;;;;;;;12.33;5.90;;;28.80;66.00;;;;;;5063696;28;20054;-75
2024/01/10 03:35:27;;;;;;;7.18;5.25;;;28.70;66.20;;;;;;5070681;28;20074;-82
2024/01/10 03:37:54;;;;;;;11.85;5.88;;;28.80;65.90;;;;;;5080104;28;20024;-85
2024/01/10 03:40:22;;;;;;;6.68;5.32;;;28.80;65.90;;;;;;5081538;28;20036;-80
2024/01/10 03:42:52;;;;;;;10.80;5.82;;;28.70;66.20;;;;;;5079008;28;20016;-86
2024/01/10 03:45:22;;;;;;;9.60;5.75;;;28.80;66.30;;;;;;5073681;28;20035;-80
2024/01/10 03:47:51;;;;;;;9.20;5.15;;;28.80;66.10;;;;;;5072745;28;20028;-87
2024/01/10 03:50:20;;;;;;;8.48;4.85;;;28.90;66.10;;;;;;5073992;28;20064;-80
2024/01/10 03:52:47;;;;;;;8.45;5.28;;;28.90;66.00;;;;;;5073868;28;20031;-86
2024/01/10 03:55:15;;;;;;;11.93;4.47;;;28.90;65.90;;;;;;5080633;28;20044;-77
2024/01/10 03:57:45;;;;;;;9.27;4.93;;;28.90;65.80;;;;;;5083824;28;20045;-82
2024/01/10 04:00:13;;;;;;;8.55;4.88;;;28.90;66.00;;;;;;5074305;28;20071;-82
2024/01/10 04:02:40;;;;;;;6.18;3.97;;;28.90;65.70;;;;;;5072792;28;20025;-77
2024/01/10 04:05:11;;;;;;;7.18;3.80;;;28.80;66.20;;;;;;5072852;28;20106;-80
2024/01/10 04:07:44;;;;;;;8.18;3.92;;;28.80;66.40;;;;;;5068725;28;20016;-82
2024/01/10 04:10:13;;;;;;;5.57;4.20;;;28.80;66.80;;;;;;5074148;28;20382;-80
2024/01/10 04:12:42;;;;;;;9.48;4.18;;;28.80;66.80;;;;;;5073217;28;20020;-76
2024/01/10 04:15:10;;;;;;;8.52;3.63;;;28.80;66.70;;;;;;5069814;28;20165;-86
2024/01/10 04:17:37;;;;;;;6.15;3.90;;;28.80;66.80;;;;;;5063152;28;20029;-78
2024/01/10 04:20:06;;;;;;;9.60;4.25;;;28.80;66.60;;;;;;5071593;28;20459;-81
2024/01/10 04:22:33;;;;;;;8.60;4.82;;;28.80;66.70;;;;;;5089128;28;20032;-85
2024/01/10 04:25:02;;;;;;;8.23;5.47;;;28.70;66.90;;;;;;5077209;28;20024;-83
2024/01/10 04:27:30;;;;;;;8.43;5.00;;;28.60;67.10;;;;;;5074504;28;20467;-80
2024/01/10 04:30:01;;;;;;;10.73;5.30;;;28.60;67.10;;;;;;5074332;28;20013;-81
2024/01/10 04:32:31;;;;;;;7.65;5.95;;;28.70;66.70;;;;;;5074486;28;20024;-81
2024/01/10 04:34:58;;;;;;;13.35;6.15;;;28.80;66.40;;;;;;5074027;28;20024;-81
2024/01/10 04:37:27;;;;;;;9.45;5.50;;;28.80;66.50;;;;;;5056877;28;20025;-86
2024/01/10 04:39:56;;;;;;;10.65;4.88;;;28.70;66.70;;;;;;5073852;28;20090;-81
2024/01/10 04:42:25;;;;;;;9.25;4.70;;;28.80;66.60;;;;;;5056698;28;20387;-82
2024/01/10 04:44:52;;;;;;;9.65;4.03;;;28.80;66.50;;;;;;5074209;28;20648;-79
2024/01/10 04:47:20;;;;;;;7.22;4.00;;;28.80;66.80;;;;;;5078497;28;20017;-85
2024/01/10 04:49:47;;;;;;;7.32;3.83;;;28.80;66.70;;;;;;5081481;28;20024;-77
2024/01/10 04:52:18;;;;;;;6.97;4.07;;;28.80;66.80;;;;;;5078393;28;20017;-84
2024/01/10 04:54:49;;;;;;;5.80;3.92;;;28.80;67.00;;;;;;5074600;28;20082;-81
2024/01/10 04:57:17;;;;;;;5.80;3.95;;;28.80;66.90;;;;;;5075106;28;20044;-85
2024/01/10 04:59:45;;;;;;;9.07;4.30;;;28.80;67.10;;;;;;5074553;28;20024;-80
2024/01/10 05:02:13;;;;;;;6.88;3.88;;;28.80;66.90;;;;;;5074399;28;20097;-84
2024/01/10 05:04:41;;;;;;;7.07;3.45;;;28.80;67.10;;;;;;5074564;28;20027;-83
2024/01/10 05:07:09;;;;;;;6.03;3.08;;;28.80;67.20;;;;;;5075115;28;20155;-80
2024/01/10 05:09:38;;;;;;;11.65;3.97;;;28.80;67.40;;;;;;5074557;28;20106;-85
2024/01/10 05:12:08;;;;;;;5.43;3.40;;;28.80;67.00;;;;;;5055942;28;20361;-78
2024/01/10 05:14:36;;;;;;;5.82;3.45;;;28.80;67.10;;;;;;5073667;28;20101;-87
2024/01/10 05:17:03;;;;;;;7.25;3.70;;;28.80;67.10;;;;;;5074102;28;20052;-80
2024/01/10 05:19:30;;;;;;;7.30;3.50;;;28.70;67.10;;;;;;5073757;28;20032;-79
2024/01/10 05:21:58;;;;;;;4.70;3.60;;;28.60;67.40;;;;;;5073367;28;20368;-82
2024/01/10 05:24:36;;;;;;;6.47;3.03;;;28.50;67.70;;;;;;5074036;28;20055;-80
2024/01/10 05:27:03;;;;;;;5.35;3.45;;;28.50;68.20;;;;;;5073728;28;20028;-81
2024/01/10 05:29:31;;;;;;;6.13;2.85;;;28.40;68.10;;;;;;5072357;28;20021;-79
2024/01/10 05:31:58;;;;;;;7.82;3.15;;;28.30;68.60;;;;;;5073482;28;20082;-78
2024/01/10 05:34:25;;;;;;;6.78;3.15;;;28.30;68.70;;;;;;5055468;28;20545;-78
2024/01/10 05:36:53;;;;;;;6.68;2.90;;;28.30;69.20;;;;;;5074944;28;20451;-81
2024/01/10 05:39:21;;;;;;;5.95;3.05;;;28.30;69.10;;;;;;5075806;28;20119;-86
2024/01/10 05:41:50;;;;;;;7.47;3.20;;;28.20;69.30;;;;;;5075055;28;20090;-80
2024/01/10 05:44:17;;;;;;;7.05;2.80;;;28.10;69.60;;;;;;5074917;28;20032;-81
2024/01/10 05:46:45;;;;;;;7.93;2.90;;;28.00;69.90;;;;;;5074166;28;20107;-84
2024/01/10 05:49:15;;;;;;;7.85;3.00;;;27.90;70.10;;;;;;5075041;28;20017;-81
2024/01/10 05:51:42;;;;;;;8.63;3.38;;;27.90;70.30;;;;;;5075165;28;20024;-87
2024/01/10 05:54:09;;;;;;;5.70;2.90;;;27.90;70.40;;;;;;5057479;28;20479;-80
2024/01/10 05:56:38;;;;;;;5.75;2.88;;;27.90;70.40;;;;;;5076550;28;20028;-79
2024/01/10 05:59:05;;;;;;;8.50;3.13;;;27.90;70.50;;;;;;5056914;28;20025;-80
2024/01/10 06:01:35;;;;;;;6.45;3.10;;;27.80;70.40;;;;;;5073822;28;20021;-89
2024/01/10 06:04:05;;;;;;;6.43;2.90;;;27.80;70.50;;;;;;5074437;28;20039;-91
2024/01/10 06:06:35;;;;;;;5.22;2.58;;;27.80;70.40;;;;;;5075256;28;20029;-82
2024/01/10 06:09:04;;;;;;;5.75;2.88;;;27.80;70.70;;;;;;5075041;28;20491;-85
2024/01/10 06:11:32;;;;;;;5.93;2.60;;;28.00;70.50;;;;;;5057460;28;20491;-91
2024/01/10 06:13:59;;;;;;;3.50;2.40;;;28.00;70.20;;;;;;5054716;28;20037;-79
2024/01/10 06:16:26;;;;;;;5.05;2.40;;;28.00;70.10;;;;;;5075127;28;20024;-82
2024/01/10 06:18:55;;;;;;;2.65;2.22;;;28.00;69.90;;;;;;5057482;28;20017;-83
2024/01/10 06:21:23;;;;;;;4.72;2.40;;;28.10;69.70;;;;;;5078430;28;20025;-85
2024/01/10 06:23:53;;;;;;;4.85;2.40;;;28.20;69.60;;;;;;5077678;28;20053;-80
2024/01/10 06:26:22;;;;;;;4.57;2.58;;;28.10;69.60;;;;;;5078746;28;20033;-87
2024/01/10 06:28:50;;;;;;;5.95;3.17;;;28.20;69.60;;;;;;5063347;28;20017;-92
2024/01/10 06:31:20;;;;;;;5.45;2.75;;;28.20;69.80;;;;;;5080182;28;20084;-88
2024/01/10 06:33:50;;;;;;;6.63;3.00;;;28.20;69.70;;;;;;5077473;28;20029;-91
2024/01/10 06:36:18;;;;;;;9.13;4.00;;;28.20;69.70;;;;;;5077361;28;20059;-87
2024/01/10 06:38:47;;;;;;;4.65;2.72;;;28.20;69.70;;;;;;5078796;28;20044;-83
2024/01/10 06:41:16;;;;;;;7.30;3.00;;;28.20;69.50;;;;;;5081487;28;20025;-86
2024/01/10 06:43:46;;;;;;;6.38;3.40;;;28.30;69.60;;;;;;5076888;28;20028;-88
2024/01/10 06:46:14;;;;;;;5.97;2.78;;;28.30;69.70;;;;;;5075850;28;20024;-80
2024/01/10 06:48:41;;;;;;;6.35;2.20;;;28.30;69.50;;;;;;5075233;28;20371;-80
2024/01/10 06:51:17;;;;;;;5.97;2.33;;;28.30;69.20;;;;;;5078456;28;20017;-94
2024/01/10 06:53:45;;;;;;;4.70;2.42;;;28.30;69.20;;;;;;5076820;28;20081;-88
2024/01/10 06:56:13;;;;;;;4.13;2.33;;;28.40;69.00;;;;;;5076145;28;20029;-80
2024/01/10 06:58:40;;;;;;;5.63;2.10;;;28.30;69.00;;;;;;5082697;28;20084;-79
2024/01/10 07:01:21;;;;;;;5.05;2.30;;;28.30;69.20;;;;;;5082277;28;20052;-78
2024/01/10 07:03:49;;;;;;;5.57;2.45;;;28.30;69.00;;;;;;5062805;28;20029;-83
2024/01/10 07:06:16;;;;;;;3.70;2.20;;;28.30;69.20;;;;;;5082982;28;20063;-79
2024/01/10 07:08:44;;;;;;;8.48;2.47;;;28.20;69.40;;;;;;5081514;28;20107;-82
2024/01/10 07:11:12;;;;;;;3.60;2.40;;;28.20;69.60;;;;;;5082857;28;20885;-82
2024/01/10 07:13:41;;;;;;;5.63;2.40;;;28.10;69.60;;;;;;5083226;28;20044;-84
2024/01/10 07:16:09;;;;;;;5.55;2.40;;;28.10;69.60;;;;;;5064973;28;20107;-88
2024/01/10 07:18:37;;;;;;;3.97;2.38;;;28.00;69.60;;;;;;5083031;28;20052;-79
2024/01/10 07:21:05;;;;;;;4.47;2.75;;;28.00;69.70;;;;;;5083486;28;20353;-78
2024/01/10 07:23:33;;;;;;;4.20;2.00;;;27.90;70.00;;;;;;5066260;28;20076;-77
2024/01/10 07:26:03;;;;;;;5.15;2.55;;;27.90;69.90;;;;;;5080868;28;20025;-84
2024/01/10 07:28:32;;;;;;;4.15;2.40;;;27.80;70.00;;;;;;5082569;28;20013;-81
2024/01/10 07:31:02;;;;;;;5.30;2.40;;;27.80;70.30;;;;;;5084986;28;20021;-78
2024/01/10 07:33:32;;;;;;;4.55;2.50;;;27.80;70.40;;;;;;5082791;28;20021;-80
2024/01/10 07:36:02;;;;;;;5.53;2.90;;;27.70;70.60;;;;;;5082298;28;20448;-77
2024/01/10 07:38:29;;;;;;;5.75;2.92;;;27.60;70.70;;;;;;5085818;28;20023;-79
2024/01/10 07:40:59;;;;;;;6.82;3.25;;;27.60;70.90;;;;;;5082859;28;20032;-79
2024/01/10 07:43:27;;;;;;;4.63;2.80;;;27.60;71.10;;;;;;5081411;28;20055;-83
2024/01/10 07:45:56;;;;;;;5.30;2.60;;;27.60;71.30;;;;;;5063647;28;20029;-87
2024/01/10 07:48:24;;;;;;;7.63;2.65;;;27.60;71.30;;;;;;5081391;28;20020;-80
2024/01/10 07:50:53;;;;;;;6.03;2.40;;;27.60;71.30;;;;;;5080504;28;20024;-84
2024/01/10 07:53:20;;;;;;;6.72;3.10;;;27.60;71.50;;;;;;5079803;28;20038;-82
2024/01/10 07:55:51;;;;;;;6.88;2.60;;;27.60;71.60;;;;;;5079938;28;20074;-83
2024/01/10 07:58:18;;;;;;;6.53;2.30;;;27.70;71.70;;;;;;5077029;28;20533;-81
2024/01/10 08:00:48;;;;;;;4.10;2.33;;;27.70;71.30;;;;;;5077731;28;20031;-88
2024/01/10 08:03:15;;;;;;;5.03;2.38;;;27.80;71.40;;;;;;5078854;28;20021;-79
2024/01/10 08:05:43;;;;;;;6.35;2.75;;;27.70;71.20;;;;;;5079678;28;20122;-91
2024/01/10 08:08:13;;;;;;;7.20;2.70;;;27.70;71.50;;;;;;5079093;28;20076;-86
2024/01/10 08:10:41;;;;;;;6.63;2.55;;;27.70;71.60;;;;;;5081106;28;20467;-83
2024/01/10 08:13:08;;;;;;;4.00;2.22;;;27.70;71.60;;;;;;5080852;28;20059;-87
2024/01/10 08:15:36;;;;;;;6.45;2.88;;;27.70;71.30;;;;;;5079411;28;20105;-83
2024/01/10 08:18:03;;;;;;;4.65;2.20;;;27.60;71.30;;;;;;5078012;28;20357;-78
2024/01/10 08:20:31;;;;;;;6.32;2.78;;;27.50;71.60;;;;;;5079586;28;20103;-81
2024/01/10 08:22:59;;;;;;;6.35;2.75;;;27.50;71.90;;;;;;5060841;28;20392;-79
2024/01/10 08:25:26;;;;;;;6.43;2.17;;;27.40;71.90;;;;;;5079094;28;20017;-87
2024/01/10 08:27:55;;;;;;;3.90;2.38;;;27.30;72.10;;;;;;5079391;28;20071;-80
2024/01/10 08:30:25;;;;;;;6.88;2.58;;;27.30;72.10;;;;;;5081005;28;20082;-82
2024/01/10 08:32:55;;;;;;;7.15;2.92;;;27.30;72.30;;;;;;5082254;28;20032;-79
2024/01/10 08:35:26;;;;;;;6.18;3.10;;;27.30;72.50;;;;;;5080925;28;20468;-81
2024/01/10 08:37:56;;;;;;;5.05;2.67;;;27.20;72.60;;;;;;5082326;28;20041;-84
2024/01/10 08:40:27;;;;;;;7.20;2.70;;;27.20;72.80;;;;;;5080413;28;20040;-82
2024/01/10 08:42:54;;;;;;;5.82;2.35;;;27.20;72.90;;;;;;5060257;28;20028;-83
2024/01/10 08:45:24;;;;;;;6.00;2.42;;;27.20;73.00;;;;;;5076942;28;20383;-79
2024/01/10 08:47:53;;;;;;;5.97;2.60;;;27.10;73.00;;;;;;5076506;28;20021;-79
2024/01/10 08:50:24;;;;;;;4.05;2.28;;;27.10;73.20;;;;;;5077130;28;20016;-78
2024/01/10 08:52:51;;;;;;;3.80;1.85;;;27.00;73.10;;;;;;5077841;28;20025;-81
2024/01/10 08:55:18;;;;;;;5.43;2.25;;;27.00;73.10;;;;;;5061391;28;20047;-82
2024/01/10 08:57:46;;;;;;;3.75;2.17;;;26.90;73.10;;;;;;5076797;28;20418;-82
2024/01/10 09:00:16;;;;;;;3.55;2.03;;;26.80;73.30;;;;;;5078594;28;20028;-81
2024/01/10 09:02:46;;;;;;;3.58;2.10;;;26.80;73.50;;;;;;5078990;28;20027;-86
2024/01/10 09:05:14;;;;;;;3.83;1.95;;;26.70;73.70;;;;;;5078287;28;20021;-86
2024/01/10 09:07:42;;;;;;;5.97;2.47;;;26.70;73.60;;;;;;5079327;28;20496;-80
2024/01/10 09:10:10;;;;;;;4.05;2.22;;;26.60;73.80;;;;;;5081934;28;20073;-81
2024/01/10 09:12:39;;;;;;;5.20;2.30;;;26.60;74.00;;;;;;5083589;28;20013;-79
2024/01/10 09:15:13;;;;;;;4.95;2.35;;;26.60;74.10;;;;;;5082311;28;20059;-81
2024/01/10 09:17:43;;;;;;;4.53;2.58;;;26.60;74.20;;;;;;5062134;28;20476;-86
2024/01/10 09:20:11;;;;;;;4.35;2.33;;;26.50;74.20;;;;;;5077650;28;20051;-84
2024/01/10 09:22:41;;;;;;;4.63;2.53;;;26.50;74.20;;;;;;5058915;28;20360;-84
2024/01/10 09:25:12;;;;;;;5.05;2.55;;;26.50;74.10;;;;;;5080491;28;20024;-84
2024/01/10 09:27:44;;;;;;;5.00;2.40;;;26.50;74.30;;;;;;5081754;28;20020;-88
2024/01/10 09:30:12;;;;;;;5.70;3.03;;;26.50;74.50;;;;;;5079583;28;20025;-82
2024/01/10 09:32:40;;;;;;;6.97;3.10;;;26.50;74.50;;;;;;5079150;28;20032;-82
2024/01/10 09:35:09;;;;;;;4.80;3.20;;;26.40;74.60;;;;;;5078993;28;20117;-82
2024/01/10 09:37:36;;;;;;;5.15;2.78;;;26.40;74.90;;;;;;5061157;28;20047;-81
2024/01/10 09:40:06;;;;;;;5.07;2.92;;;26.40;74.80;;;;;;5079284;28;20017;-82
2024/01/10 09:42:38;;;;;;;3.75;2.53;;;26.40;75.00;;;;;;5080138;28;20029;-79
2024/01/10 09:45:11;;;;;;;4.32;2.75;;;26.30;75.00;;;;;;5080547;28;20024;-79
2024/01/10 09:47:46;;;;;;;5.82;3.00;;;26.40;75.10;;;;;;5079675;28;20029;-79
2024/01/10 09:50:14;;;;;;;5.57;2.97;;;26.40;75.40;;;;;;5061140;28;20031;-80
2024/01/10 09:53:08;;;;;;;4.07;2.50;;;26.40;75.20;;;;;;5081638;28;20032;-91
2024/01/10 09:55:42;;;;;;;5.03;3.05;;;26.40;75.40;;;;;;5062081;28;20040;-80
2024/01/10 09:58:12;;;;;;;4.78;2.88;;;26.40;75.40;;;;;;5081730;28;20028;-81
2024/01/10 10:00:44;;;;;;;4.68;3.05;;;26.30;75.40;;;;;;5078189;28;20021;-83
2024/01/10 10:03:16;;;;;;;5.18;3.10;;;26.30;75.50;;;;;;5076627;28;20028;-89
2024/01/10 10:05:44;;;;;;;4.68;3.08;;;26.30;75.60;;;;;;5079427;28;20039;-80
2024/01/10 10:08:21;;;;;;;4.68;3.13;;;26.30;75.60;;;;;;5064846;28;20464;-79
2024/01/10 10:10:52;;;;;;;4.70;3.15;;;26.30;75.50;;;;;;5082633;28;20351;-79
2024/01/10 10:13:31;;;;;;;6.57;2.92;;;26.30;75.50;;;;;;5063427;28;20022;-88
2024/01/10 10:16:04;;;;;;;4.35;2.92;;;26.30;75.50;;;;;;5038065;28;20069;-83
2024/01/10 10:18:34;;;;;;;6.97;3.85;;;26.30;75.50;;;;;;5036818;28;20026;-80
2024/01/10 10:21:16;;;;;;;6.75;3.70;;;26.30;75.50;;;;;;5038889;28;20048;-78
2024/01/10 10:24:07;;;;;;;6.78;3.60;;;26.30;75.20;;;;;;5041029;28;20361;-78
2024/01/10 10:26:35;;;;;;;5.45;3.58;;;26.30;75.30;;;;;;5042733;28;20472;-78
2024/01/10 10:29:05;;;;;;;4.13;3.63;;;26.30;75.40;;;;;;5047614;28;20187;-85
2024/01/10 10:31:32;;;;;;;3.30;2.92;;;26.30;75.40;;;;;;5046099;28;20029;-82
2024/01/10 10:34:02;;;;;;;6.20;3.20;;;26.30;75.40;;;;;;5044637;28;20026;-80
2024/01/10 10:36:34;;;;;;;4.10;2.70;;;26.30;75.30;;;;;;5045307;28;20092;-80
2024/01/10 10:39:13;;;;;;;4.32;2.67;;;26.30;75.20;;;;;;5045561;28;20022;-86
2024/01/10 10:41:41;;;;;;;3.85;2.50;;;26.30;75.20;;;;;;5057304;28;20435;-81
2024/01/10 10:44:10;;;;;;;5.57;2.92;;;26.30;75.20;;;;;;5042028;28;20561;-87
2024/01/10 10:46:39;;;;;;;3.28;2.60;;;26.30;75.20;;;;;;5055929;28;20075;-86
2024/01/10 10:49:13;;;;;;;3.95;2.55;;;26.30;75.20;;;;;;5040131;28;20022;-85
2024/01/10 10:51:41;;;;;;;4.47;2.38;;;26.30;75.30;;;;;;5040282;28;20057;-79
2024/01/10 10:54:15;;;;;;;4.70;2.40;;;26.20;75.40;;;;;;5040051;28;20030;-89
2024/01/10 10:56:45;;;;;;;3.63;2.63;;;26.20;75.40;;;;;;5022777;28;20056;-82
2024/01/10 10:59:16;;;;;;;5.47;2.78;;;26.30;75.50;;;;;;5038613;28;20093;-91
2024/01/10 11:01:46;;;;;;;4.40;2.45;;;26.20;75.60;;;;;;5038346;28;20022;-89
2024/01/10 11:04:15;;;;;;;5.05;2.33;;;26.20;75.70;;;;;;5054406;28;20155;-85
2024/01/10 11:06:43;;;;;;;4.72;2.50;;;26.20;75.70;;;;;;5042493;28;20031;-84
2024/01/10 11:09:14;;;;;;;4.88;2.45;;;26.20;75.80;;;;;;5044058;28;20026;-87
2024/01/10 11:12:02;;;;;;;6.70;2.50;;;26.20;75.80;;;;;;5045364;28;20022;-83
2024/01/10 11:15:11;;;;;;;6.63;2.80;;;26.10;75.70;;;;;;5064502;28;20043;-78
2024/01/10 11:17:53;;;;;;;7.43;2.58;;;26.10;75.70;;;;;;5060303;28;20059;-78
2024/01/10 11:20:55;;;;;;;6.95;2.65;;;26.10;75.80;;;;;;5084783;28;20055;-79
2024/01/10 11:23:40;;;;;;;5.78;2.65;;;26.10;75.80;;;;;;5085675;28;20025;-79
2024/01/10 11:26:08;;;;;;;4.63;2.33;;;26.10;75.90;;;;;;5082194;28;20025;-79
2024/01/10 11:28:40;;;;;;;6.20;2.83;;;26.00;76.10;;;;;;5064094;28;20024;-78
2024/01/10 11:31:08;;;;;;;5.53;2.83;;;26.00;76.20;;;;;;5084400;28;20374;-79
2024/01/10 11:33:40;;;;;;;5.65;2.60;;;26.00;76.30;;;;;;5081542;28;20028;-82
2024/01/10 11:36:12;;;;;;;6.20;2.63;;;26.00;76.30;;;;;;5079623;28;20033;-78
2024/01/10 11:38:56;;;;;;;5.60;2.50;;;26.00;76.10;;;;;;5084411;28;20025;-79
2024/01/10 11:41:29;;;;;;;6.00;2.90;;;25.90;76.10;;;;;;5083125;28;20081;-78
2024/01/10 11:44:12;;;;;;;4.80;2.50;;;25.90;76.10;;;;;;5082994;28;20017;-80
2024/01/10 11:46:39;;;;;;;5.53;2.42;;;25.90;76.30;;;;;;5085246;28;20077;-79
2024/01/10 11:49:18;;;;;;;4.57;2.78;;;25.90;76.30;;;;;;5083750;28;20100;-80
2024/01/10 11:51:51;;;;;;;3.85;2.30;;;25.90;75.80;;;;;;5081617;28;20044;-86
2024/01/10 11:54:46;;;;;;;5.45;2.60;;;25.90;75.60;;;;;;5086128;28;20040;-79
2024/01/10 11:57:20;;;;;;;4.35;2.42;;;25.90;75.70;;;;;;5081650;28;20021;-77
2024/01/10 11:59:53;;;;;;;6.18;2.53;;;25.80;76.00;;;;;;5078475;28;20024;-78
2024/01/10 12:02:27;;;;;;;4.07;2.45;;;25.80;75.70;;;;;;5079120;28;20021;-79
2024/01/10 12:04:55;;;;;;;2.58;2.13;;;25.80;75.80;;;;;;5079326;28;20051;-79
2024/01/10 12:07:25;;;;;;;4.35;2.20;;;25.80;75.90;;;;;;5078278;28;20115;-79
2024/01/10 12:09:54;;;;;;;3.17;2.10;;;25.80;76.00;;;;;;5079797;28;20072;-78
2024/01/10 12:12:22;;;;;;;5.18;2.75;;;25.80;76.20;;;;;;5081247;28;20066;-79
2024/01/10 12:14:51;;;;;;;4.25;2.30;;;25.80;76.10;;;;;;5077643;28;20376;-79
2024/01/10 12:17:20;;;;;;;7.65;2.42;;;25.70;76.20;;;;;;5081013;28;20430;-79
2024/01/10 12:19:47;;;;;;;3.95;2.03;;;25.70;76.50;;;;;;5079417;28;20040;-78
2024/01/10 12:22:17;;;;;;;2.50;2.20;;;25.70;76.80;;;;;;5078340;28;20033;-79
2024/01/10 12:24:49;;;;;;;3.40;2.10;;;25.70;76.80;;;;;;5077282;28;20039;-79
2024/01/10 12:27:20;;;;;;;2.70;2.10;;;25.70;76.70;;;;;;5080040;28;20016;-79
2024/01/10 12:29:52;;;;;;;4.68;2.35;;;25.60;76.90;;;;;;5078916;28;20025;-80
2024/01/10 12:32:22;;;;;;;6.63;2.70;;;25.60;77.00;;;;;;5080979;28;20086;-79
2024/01/10 12:35:03;;;;;;;4.47;2.55;;;25.50;77.00;;;;;;5065874;28;20041;-79
2024/01/10 12:37:32;;;;;;;6.38;2.40;;;25.50;77.20;;;;;;5081709;28;20013;-79
2024/01/10 12:40:04;;;;;;;6.45;2.60;;;25.50;77.10;;;;;;5063220;28;20115;-78
2024/01/10 12:43:07;;;;;;;4.07;2.30;;;25.50;77.10;;;;;;5083089;28;20072;-78
2024/01/10 12:45:35;;;;;;;8.60;2.45;;;25.50;77.20;;;;;;5081475;28;20048;-78
2024/01/10 12:48:08;;;;;;;5.60;2.83;;;25.50;77.50;;;;;;5082557;28;20028;-78
2024/01/10 12:50:49;;;;;;;6.10;2.80;;;25.50;77.60;;;;;;5082251;28;20088;-79
2024/01/10 12:53:17;;;;;;;6.30;2.67;;;25.50;77.80;;;;;;5065735;28;20016;-79
2024/01/10 12:55:47;;;;;;;4.45;2.28;;;25.50;78.30;;;;;;5083296;28;20028;-79
2024/01/10 12:58:16;;;;;;;5.00;2.60;;;25.50;78.30;;;;;;5082962;28;20074;-78
2024/01/10 13:00:45;;;;;;;4.65;2.42;;;25.50;78.20;;;;;;5081710;28;20134;-78